sensor_id;sensor_type;location;lat;lon;timestamp;P1;durP1;ratioP1;P2;durP2;ratioP2
64060;SDS011;60147;55.036;73.242;2023-04-03T00:00:02;15.20;;;5.20;;
64060;SDS011;60147;55.036;73.242;2023-04-03T00:02:32;10.73;;;4.65;;
64060;SDS011;60147;55.036;73.242;2023-04-03T00:05:02;10.55;;;5.07;;
64060;SDS011;60147;55.036;73.242;2023-04-03T00:07:38;14.48;;;5.00;;
64060;SDS011;60147;55.036;73.242;2023-04-03T00:10:14;13.25;;;5.13;;
64060;SDS011;60147;55.036;73.242;2023-04-03T00:12:46;8.60;;;4.65;;
64060;SDS011;60147;55.036;73.242;2023-04-03T00:15:21;11.18;;;5.10;;
64060;SDS011;60147;55.036;73.242;2023-04-03T00:17:47;12.98;;;4.93;;
64060;SDS011;60147;55.036;73.242;2023-04-03T00:22:57;9.30;;;5.00;;
64060;SDS011;60147;55.036;73.242;2023-04-03T00:25:23;11.80;;;5.03;;
64060;SDS011;60147;55.036;73.242;2023-04-03T00:27:49;9.35;;;4.53;;
64060;SDS011;60147;55.036;73.242;2023-04-03T00:33:15;15.45;;;4.95;;
64060;SDS011;60147;55.036;73.242;2023-04-03T00:36:04;10.63;;;4.50;;
64060;SDS011;60147;55.036;73.242;2023-04-03T00:41:25;15.23;;;4.72;;
64060;SDS011;60147;55.036;73.242;2023-04-03T00:46:46;11.25;;;4.07;;
64060;SDS011;60147;55.036;73.242;2023-04-03T00:49:11;8.90;;;3.92;;
64060;SDS011;60147;55.036;73.242;2023-04-03T00:51:38;26.38;;;5.32;;
64060;SDS011;60147;55.036;73.242;2023-04-03T00:54:22;19.27;;;5.10;;
64060;SDS011;60147;55.036;73.242;2023-04-03T00:56:49;19.02;;;5.00;;
64060;SDS011;60147;55.036;73.242;2023-04-03T00:59:18;13.85;;;5.50;;
64060;SDS011;60147;55.036;73.242;2023-04-03T01:01:53;17.67;;;4.68;;
64060;SDS011;60147;55.036;73.242;2023-04-03T01:04:31;18.25;;;5.20;;
64060;SDS011;60147;55.036;73.242;2023-04-03T01:07:06;9.68;;;4.57;;
64060;SDS011;60147;55.036;73.242;2023-04-03T01:09:53;16.30;;;5.53;;
64060;SDS011;60147;55.036;73.242;2023-04-03T01:12:22;16.30;;;4.45;;
64060;SDS011;60147;55.036;73.242;2023-04-03T01:14:50;16.90;;;4.60;;
64060;SDS011;60147;55.036;73.242;2023-04-03T01:22:39;12.50;;;4.88;;
64060;SDS011;60147;55.036;73.242;2023-04-03T01:25:11;13.20;;;4.85;;
64060;SDS011;60147;55.036;73.242;2023-04-03T01:27:37;13.38;;;4.90;;
64060;SDS011;60147;55.036;73.242;2023-04-03T01:30:04;15.38;;;5.13;;
64060;SDS011;60147;55.036;73.242;2023-04-03T01:32:30;17.38;;;5.50;;
64060;SDS011;60147;55.036;73.242;2023-04-03T01:35:01;17.17;;;5.22;;
64060;SDS011;60147;55.036;73.242;2023-04-03T01:37:27;16.73;;;5.00;;
64060;SDS011;60147;55.036;73.242;2023-04-03T01:39:53;16.17;;;5.57;;
64060;SDS011;60147;55.036;73.242;2023-04-03T01:42:19;16.02;;;5.22;;
64060;SDS011;60147;55.036;73.242;2023-04-03T01:44:45;17.35;;;5.25;;
64060;SDS011;60147;55.036;73.242;2023-04-03T01:47:16;19.17;;;5.38;;
64060;SDS011;60147;55.036;73.242;2023-04-03T01:50:01;15.52;;;5.20;;
64060;SDS011;60147;55.036;73.242;2023-04-03T01:52:29;26.48;;;5.30;;
64060;SDS011;60147;55.036;73.242;2023-04-03T01:54:56;19.30;;;5.80;;
64060;SDS011;60147;55.036;73.242;2023-04-03T01:57:22;23.52;;;6.80;;
64060;SDS011;60147;55.036;73.242;2023-04-03T01:59:48;28.85;;;6.45;;
64060;SDS011;60147;55.036;73.242;2023-04-03T02:02:14;23.17;;;6.43;;
64060;SDS011;60147;55.036;73.242;2023-04-03T02:04:41;14.65;;;5.22;;
64060;SDS011;60147;55.036;73.242;2023-04-03T02:09:52;13.07;;;5.22;;
64060;SDS011;60147;55.036;73.242;2023-04-03T02:12:19;15.45;;;5.72;;
64060;SDS011;60147;55.036;73.242;2023-04-03T02:14:45;15.85;;;5.80;;
64060;SDS011;60147;55.036;73.242;2023-04-03T02:17:11;16.52;;;6.60;;
64060;SDS011;60147;55.036;73.242;2023-04-03T02:19:37;11.82;;;5.55;;
64060;SDS011;60147;55.036;73.242;2023-04-03T02:22:21;14.90;;;6.20;;
64060;SDS011;60147;55.036;73.242;2023-04-03T02:25:05;21.13;;;5.90;;
64060;SDS011;60147;55.036;73.242;2023-04-03T02:27:31;18.73;;;6.47;;
64060;SDS011;60147;55.036;73.242;2023-04-03T02:29:57;15.52;;;5.45;;
64060;SDS011;60147;55.036;73.242;2023-04-03T02:32:23;11.98;;;5.28;;
64060;SDS011;60147;55.036;73.242;2023-04-03T02:34:49;21.95;;;5.35;;
64060;SDS011;60147;55.036;73.242;2023-04-03T02:37:16;15.23;;;6.15;;
64060;SDS011;60147;55.036;73.242;2023-04-03T02:39:47;15.75;;;5.57;;
64060;SDS011;60147;55.036;73.242;2023-04-03T02:42:14;13.98;;;5.40;;
64060;SDS011;60147;55.036;73.242;2023-04-03T02:44:40;10.32;;;5.10;;
64060;SDS011;60147;55.036;73.242;2023-04-03T02:47:06;16.63;;;5.32;;
64060;SDS011;60147;55.036;73.242;2023-04-03T02:49:32;11.50;;;5.03;;
64060;SDS011;60147;55.036;73.242;2023-04-03T02:52:08;14.63;;;4.35;;
64060;SDS011;60147;55.036;73.242;2023-04-03T02:54:44;10.30;;;4.57;;
64060;SDS011;60147;55.036;73.242;2023-04-03T02:57:38;19.15;;;5.05;;
64060;SDS011;60147;55.036;73.242;2023-04-03T03:00:04;12.27;;;4.18;;
64060;SDS011;60147;55.036;73.242;2023-04-03T03:02:35;7.13;;;3.72;;
64060;SDS011;60147;55.036;73.242;2023-04-03T03:05:01;14.68;;;4.20;;
64060;SDS011;60147;55.036;73.242;2023-04-03T03:07:27;12.77;;;4.20;;
64060;SDS011;60147;55.036;73.242;2023-04-03T03:09:53;11.52;;;4.35;;
64060;SDS011;60147;55.036;73.242;2023-04-03T03:12:19;10.25;;;3.63;;
64060;SDS011;60147;55.036;73.242;2023-04-03T03:14:47;10.88;;;3.38;;
64060;SDS011;60147;55.036;73.242;2023-04-03T03:17:23;9.50;;;3.25;;
64060;SDS011;60147;55.036;73.242;2023-04-03T03:19:49;6.85;;;3.72;;
64060;SDS011;60147;55.036;73.242;2023-04-03T03:22:15;10.02;;;3.10;;
64060;SDS011;60147;55.036;73.242;2023-04-03T03:24:42;13.55;;;3.17;;
64060;SDS011;60147;55.036;73.242;2023-04-03T03:27:08;7.00;;;3.15;;
64060;SDS011;60147;55.036;73.242;2023-04-03T03:33:21;7.32;;;3.28;;
64060;SDS011;60147;55.036;73.242;2023-04-03T03:35:47;6.68;;;3.25;;
64060;SDS011;60147;55.036;73.242;2023-04-03T03:38:13;12.18;;;3.55;;
64060;SDS011;60147;55.036;73.242;2023-04-03T03:40:39;7.95;;;3.17;;
64060;SDS011;60147;55.036;73.242;2023-04-03T03:43:10;7.05;;;3.50;;
64060;SDS011;60147;55.036;73.242;2023-04-03T03:48:24;10.80;;;3.88;;
64060;SDS011;60147;55.036;73.242;2023-04-03T03:50:50;8.38;;;3.00;;
64060;SDS011;60147;55.036;73.242;2023-04-03T03:53:18;10.00;;;3.50;;
64060;SDS011;60147;55.036;73.242;2023-04-03T03:55:45;8.32;;;3.22;;
64060;SDS011;60147;55.036;73.242;2023-04-03T04:00:42;7.72;;;3.05;;
64060;SDS011;60147;55.036;73.242;2023-04-03T04:03:31;6.20;;;2.78;;
64060;SDS011;60147;55.036;73.242;2023-04-03T04:06:39;8.23;;;2.90;;
64060;SDS011;60147;55.036;73.242;2023-04-03T04:09:12;9.55;;;3.65;;
64060;SDS011;60147;55.036;73.242;2023-04-03T04:11:39;9.80;;;2.80;;
64060;SDS011;60147;55.036;73.242;2023-04-03T04:14:24;10.35;;;3.10;;
64060;SDS011;60147;55.036;73.242;2023-04-03T04:16:51;6.28;;;3.13;;
64060;SDS011;60147;55.036;73.242;2023-04-03T04:19:36;6.80;;;2.60;;
64060;SDS011;60147;55.036;73.242;2023-04-03T04:25:06;8.40;;;2.70;;
64060;SDS011;60147;55.036;73.242;2023-04-03T04:27:32;9.52;;;3.78;;
64060;SDS011;60147;55.036;73.242;2023-04-03T04:30:17;7.72;;;3.03;;
64060;SDS011;60147;55.036;73.242;2023-04-03T04:32:46;12.35;;;3.80;;
64060;SDS011;60147;55.036;73.242;2023-04-03T04:35:13;12.98;;;3.33;;
64060;SDS011;60147;55.036;73.242;2023-04-03T04:37:41;10.35;;;3.38;;
64060;SDS011;60147;55.036;73.242;2023-04-03T04:40:08;8.40;;;3.33;;
64060;SDS011;60147;55.036;73.242;2023-04-03T04:42:34;16.98;;;3.90;;
64060;SDS011;60147;55.036;73.242;2023-04-03T04:45:11;16.08;;;3.55;;
64060;SDS011;60147;55.036;73.242;2023-04-03T04:47:43;10.77;;;3.22;;
64060;SDS011;60147;55.036;73.242;2023-04-03T04:50:10;11.25;;;3.20;;
64060;SDS011;60147;55.036;73.242;2023-04-03T04:52:37;15.55;;;3.75;;
64060;SDS011;60147;55.036;73.242;2023-04-03T04:55:04;7.47;;;2.58;;
64060;SDS011;60147;55.036;73.242;2023-04-03T04:57:40;9.73;;;2.70;;
64060;SDS011;60147;55.036;73.242;2023-04-03T05:00:29;10.30;;;3.33;;
64060;SDS011;60147;55.036;73.242;2023-04-03T05:02:55;14.15;;;3.58;;
64060;SDS011;60147;55.036;73.242;2023-04-03T05:05:23;9.80;;;2.85;;
64060;SDS011;60147;55.036;73.242;2023-04-03T05:07:49;9.02;;;3.00;;
64060;SDS011;60147;55.036;73.242;2023-04-03T05:10:16;5.97;;;2.70;;
64060;SDS011;60147;55.036;73.242;2023-04-03T05:12:42;7.97;;;3.22;;
64060;SDS011;60147;55.036;73.242;2023-04-03T05:15:08;8.20;;;3.25;;
64060;SDS011;60147;55.036;73.242;2023-04-03T05:17:34;12.02;;;3.53;;
64060;SDS011;60147;55.036;73.242;2023-04-03T05:20:02;8.77;;;3.55;;
64060;SDS011;60147;55.036;73.242;2023-04-03T05:22:29;10.75;;;3.75;;
64060;SDS011;60147;55.036;73.242;2023-04-03T05:25:01;10.02;;;3.00;;
64060;SDS011;60147;55.036;73.242;2023-04-03T05:27:50;10.27;;;3.30;;
64060;SDS011;60147;55.036;73.242;2023-04-03T05:30:16;8.82;;;3.22;;
64060;SDS011;60147;55.036;73.242;2023-04-03T05:32:44;8.23;;;2.92;;
64060;SDS011;60147;55.036;73.242;2023-04-03T05:35:21;11.20;;;3.05;;
64060;SDS011;60147;55.036;73.242;2023-04-03T05:38:15;9.38;;;2.78;;
64060;SDS011;60147;55.036;73.242;2023-04-03T05:40:53;9.15;;;3.47;;
64060;SDS011;60147;55.036;73.242;2023-04-03T05:43:19;13.32;;;2.80;;
64060;SDS011;60147;55.036;73.242;2023-04-03T05:48:48;10.45;;;3.33;;
64060;SDS011;60147;55.036;73.242;2023-04-03T05:51:19;11.05;;;3.28;;
64060;SDS011;60147;55.036;73.242;2023-04-03T05:53:49;12.45;;;3.00;;
64060;SDS011;60147;55.036;73.242;2023-04-03T05:56:36;13.13;;;3.25;;
64060;SDS011;60147;55.036;73.242;2023-04-03T06:01:48;8.75;;;3.40;;
64060;SDS011;60147;55.036;73.242;2023-04-03T06:04:35;10.30;;;3.58;;
64060;SDS011;60147;55.036;73.242;2023-04-03T06:07:01;9.13;;;3.20;;
64060;SDS011;60147;55.036;73.242;2023-04-03T06:09:28;14.43;;;5.00;;
64060;SDS011;60147;55.036;73.242;2023-04-03T06:11:57;14.75;;;4.40;;
64060;SDS011;60147;55.036;73.242;2023-04-03T06:16:54;8.88;;;3.38;;
64060;SDS011;60147;55.036;73.242;2023-04-03T06:19:20;12.45;;;3.50;;
64060;SDS011;60147;55.036;73.242;2023-04-03T06:21:56;9.85;;;3.72;;
64060;SDS011;60147;55.036;73.242;2023-04-03T06:24:23;8.02;;;3.25;;
64060;SDS011;60147;55.036;73.242;2023-04-03T06:27:02;21.10;;;3.90;;
64060;SDS011;60147;55.036;73.242;2023-04-03T06:29:37;21.73;;;3.75;;
64060;SDS011;60147;55.036;73.242;2023-04-03T06:32:22;9.35;;;3.08;;
64060;SDS011;60147;55.036;73.242;2023-04-03T06:34:48;8.40;;;3.63;;
64060;SDS011;60147;55.036;73.242;2023-04-03T06:37:17;9.05;;;3.15;;
64060;SDS011;60147;55.036;73.242;2023-04-03T06:39:44;13.02;;;4.20;;
64060;SDS011;60147;55.036;73.242;2023-04-03T06:45:05;7.93;;;3.30;;
64060;SDS011;60147;55.036;73.242;2023-04-03T06:47:33;13.10;;;3.65;;
64060;SDS011;60147;55.036;73.242;2023-04-03T06:50:03;10.67;;;3.70;;
64060;SDS011;60147;55.036;73.242;2023-04-03T06:52:34;9.85;;;3.25;;
64060;SDS011;60147;55.036;73.242;2023-04-03T06:55:00;10.18;;;3.03;;
64060;SDS011;60147;55.036;73.242;2023-04-03T06:57:44;11.80;;;3.08;;
64060;SDS011;60147;55.036;73.242;2023-04-03T07:00:11;15.70;;;3.65;;
64060;SDS011;60147;55.036;73.242;2023-04-03T07:02:37;11.95;;;3.22;;
64060;SDS011;60147;55.036;73.242;2023-04-03T07:05:03;11.82;;;3.85;;
64060;SDS011;60147;55.036;73.242;2023-04-03T07:07:29;11.27;;;3.78;;
64060;SDS011;60147;55.036;73.242;2023-04-03T07:09:55;14.05;;;4.03;;
64060;SDS011;60147;55.036;73.242;2023-04-03T07:12:26;9.23;;;2.92;;
64060;SDS011;60147;55.036;73.242;2023-04-03T07:14:52;10.63;;;3.40;;
64060;SDS011;60147;55.036;73.242;2023-04-03T07:17:18;6.07;;;3.13;;
64060;SDS011;60147;55.036;73.242;2023-04-03T07:19:44;7.90;;;3.00;;
64060;SDS011;60147;55.036;73.242;2023-04-03T07:22:19;9.32;;;2.80;;
64060;SDS011;60147;55.036;73.242;2023-04-03T07:24:55;11.40;;;3.20;;
64060;SDS011;60147;55.036;73.242;2023-04-03T07:27:31;9.93;;;3.13;;
64060;SDS011;60147;55.036;73.242;2023-04-03T07:29:57;14.15;;;3.45;;
64060;SDS011;60147;55.036;73.242;2023-04-03T07:32:23;13.50;;;3.30;;
64060;SDS011;60147;55.036;73.242;2023-04-03T07:34:49;8.07;;;3.05;;
64060;SDS011;60147;55.036;73.242;2023-04-03T07:37:15;6.78;;;2.78;;
64060;SDS011;60147;55.036;73.242;2023-04-03T07:39:43;9.10;;;2.50;;
64060;SDS011;60147;55.036;73.242;2023-04-03T07:42:10;10.27;;;3.13;;
64060;SDS011;60147;55.036;73.242;2023-04-03T07:44:36;12.20;;;3.08;;
64060;SDS011;60147;55.036;73.242;2023-04-03T07:47:20;8.05;;;2.92;;
64060;SDS011;60147;55.036;73.242;2023-04-03T07:49:46;15.73;;;2.85;;
64060;SDS011;60147;55.036;73.242;2023-04-03T07:52:12;9.70;;;3.45;;
64060;SDS011;60147;55.036;73.242;2023-04-03T07:54:40;9.25;;;2.60;;
64060;SDS011;60147;55.036;73.242;2023-04-03T07:57:06;5.25;;;2.55;;
64060;SDS011;60147;55.036;73.242;2023-04-03T07:59:32;8.40;;;3.10;;
64060;SDS011;60147;55.036;73.242;2023-04-03T08:01:58;6.57;;;2.85;;
64060;SDS011;60147;55.036;73.242;2023-04-03T08:04:24;8.02;;;2.95;;
64060;SDS011;60147;55.036;73.242;2023-04-03T08:07:00;6.13;;;2.40;;
64060;SDS011;60147;55.036;73.242;2023-04-03T08:09:44;5.03;;;2.33;;
64060;SDS011;60147;55.036;73.242;2023-04-03T08:12:10;11.38;;;3.38;;
64060;SDS011;60147;55.036;73.242;2023-04-03T08:14:37;9.93;;;2.85;;
64060;SDS011;60147;55.036;73.242;2023-04-03T08:19:47;11.60;;;3.00;;
64060;SDS011;60147;55.036;73.242;2023-04-03T08:22:13;8.73;;;2.90;;
64060;SDS011;60147;55.036;73.242;2023-04-03T08:24:39;7.13;;;3.10;;
64060;SDS011;60147;55.036;73.242;2023-04-03T08:29:49;17.65;;;2.90;;
64060;SDS011;60147;55.036;73.242;2023-04-03T08:32:20;6.00;;;2.60;;
64060;SDS011;60147;55.036;73.242;2023-04-03T08:34:46;9.68;;;2.92;;
64060;SDS011;60147;55.036;73.242;2023-04-03T08:37:12;8.13;;;3.33;;
64060;SDS011;60147;55.036;73.242;2023-04-03T08:39:57;9.30;;;2.85;;
64060;SDS011;60147;55.036;73.242;2023-04-03T08:45:26;9.48;;;2.83;;
64060;SDS011;60147;55.036;73.242;2023-04-03T08:50:31;5.25;;;2.83;;
64060;SDS011;60147;55.036;73.242;2023-04-03T08:52:59;9.95;;;2.65;;
64060;SDS011;60147;55.036;73.242;2023-04-03T08:55:41;7.72;;;2.60;;
64060;SDS011;60147;55.036;73.242;2023-04-03T09:00:59;8.65;;;3.17;;
64060;SDS011;60147;55.036;73.242;2023-04-03T09:03:34;9.32;;;3.13;;
64060;SDS011;60147;55.036;73.242;2023-04-03T09:21:59;4.80;;;2.73;;
64060;SDS011;60147;55.036;73.242;2023-04-03T09:24:45;9.60;;;3.13;;
64060;SDS011;60147;55.036;73.242;2023-04-03T09:27:31;10.13;;;3.20;;
64060;SDS011;60147;55.036;73.242;2023-04-03T09:30:16;5.63;;;2.78;;
64060;SDS011;60147;55.036;73.242;2023-04-03T09:35:28;18.30;;;2.92;;
64060;SDS011;60147;55.036;73.242;2023-04-03T09:37:59;7.50;;;2.63;;
64060;SDS011;60147;55.036;73.242;2023-04-03T09:42:52;6.00;;;2.83;;
64060;SDS011;60147;55.036;73.242;2023-04-03T09:48:23;7.55;;;2.90;;
64060;SDS011;60147;55.036;73.242;2023-04-03T09:56:02;12.65;;;3.00;;
64060;SDS011;60147;55.036;73.242;2023-04-03T09:58:40;15.27;;;3.22;;
64060;SDS011;60147;55.036;73.242;2023-04-03T10:04:11;8.23;;;2.58;;
64060;SDS011;60147;55.036;73.242;2023-04-03T10:06:55;8.38;;;2.40;;
64060;SDS011;60147;55.036;73.242;2023-04-03T10:14:36;10.32;;;2.60;;
64060;SDS011;60147;55.036;73.242;2023-04-03T10:25:35;6.75;;;2.65;;
64060;SDS011;60147;55.036;73.242;2023-04-03T10:30:21;10.07;;;3.38;;
64060;SDS011;60147;55.036;73.242;2023-04-03T10:33:02;10.40;;;2.78;;
64060;SDS011;60147;55.036;73.242;2023-04-03T10:35:42;7.13;;;2.65;;
64060;SDS011;60147;55.036;73.242;2023-04-03T10:38:40;11.88;;;3.30;;
64060;SDS011;60147;55.036;73.242;2023-04-03T10:41:16;6.97;;;2.60;;
64060;SDS011;60147;55.036;73.242;2023-04-03T10:54:44;11.68;;;3.70;;
64060;SDS011;60147;55.036;73.242;2023-04-03T10:57:12;12.60;;;3.40;;
64060;SDS011;60147;55.036;73.242;2023-04-03T10:59:45;11.48;;;2.97;;
64060;SDS011;60147;55.036;73.242;2023-04-03T11:05:07;9.63;;;2.70;;
64060;SDS011;60147;55.036;73.242;2023-04-03T11:07:57;14.77;;;3.33;;
64060;SDS011;60147;55.036;73.242;2023-04-03T11:10:46;13.27;;;3.58;;
64060;SDS011;60147;55.036;73.242;2023-04-03T11:13:15;10.98;;;3.08;;
64060;SDS011;60147;55.036;73.242;2023-04-03T11:15:43;15.48;;;3.17;;
64060;SDS011;60147;55.036;73.242;2023-04-03T11:18:12;11.75;;;3.33;;
64060;SDS011;60147;55.036;73.242;2023-04-03T11:26:46;8.63;;;2.58;;
64060;SDS011;60147;55.036;73.242;2023-04-03T11:29:37;6.25;;;2.78;;
64060;SDS011;60147;55.036;73.242;2023-04-03T11:34:36;8.93;;;2.83;;
64060;SDS011;60147;55.036;73.242;2023-04-03T11:39:52;9.55;;;2.85;;
64060;SDS011;60147;55.036;73.242;2023-04-03T11:44:49;8.20;;;3.15;;
64060;SDS011;60147;55.036;73.242;2023-04-03T11:47:49;7.10;;;3.10;;
64060;SDS011;60147;55.036;73.242;2023-04-03T11:50:07;11.40;;;2.50;;
64060;SDS011;60147;55.036;73.242;2023-04-03T11:52:59;9.20;;;3.15;;
64060;SDS011;60147;55.036;73.242;2023-04-03T11:58:16;9.75;;;4.10;;
64060;SDS011;60147;55.036;73.242;2023-04-03T12:11:23;8.25;;;3.80;;
64060;SDS011;60147;55.036;73.242;2023-04-03T12:19:13;15.23;;;4.03;;
64060;SDS011;60147;55.036;73.242;2023-04-03T12:22:12;10.95;;;4.13;;
64060;SDS011;60147;55.036;73.242;2023-04-03T12:24:39;11.10;;;3.88;;
64060;SDS011;60147;55.036;73.242;2023-04-03T12:27:23;11.13;;;3.80;;
64060;SDS011;60147;55.036;73.242;2023-04-03T12:29:51;7.38;;;3.70;;
64060;SDS011;60147;55.036;73.242;2023-04-03T12:33:05;12.00;;;3.33;;
64060;SDS011;60147;55.036;73.242;2023-04-03T12:48:46;9.15;;;4.35;;
64060;SDS011;60147;55.036;73.242;2023-04-03T12:51:58;14.10;;;4.75;;
64060;SDS011;60147;55.036;73.242;2023-04-03T12:54:03;8.77;;;4.22;;
64060;SDS011;60147;55.036;73.242;2023-04-03T12:56:32;14.38;;;4.80;;
64060;SDS011;60147;55.036;73.242;2023-04-03T13:01:56;15.88;;;5.20;;
64060;SDS011;60147;55.036;73.242;2023-04-03T13:04:23;13.73;;;5.40;;
64060;SDS011;60147;55.036;73.242;2023-04-03T13:06:49;12.52;;;5.03;;
64060;SDS011;60147;55.036;73.242;2023-04-03T13:09:28;18.40;;;5.47;;
64060;SDS011;60147;55.036;73.242;2023-04-03T13:12:01;12.48;;;4.80;;
64060;SDS011;60147;55.036;73.242;2023-04-03T13:14:28;13.57;;;4.65;;
64060;SDS011;60147;55.036;73.242;2023-04-03T13:19:44;13.75;;;4.10;;
64060;SDS011;60147;55.036;73.242;2023-04-03T13:22:29;13.52;;;4.68;;
64060;SDS011;60147;55.036;73.242;2023-04-03T13:24:56;7.22;;;4.00;;
64060;SDS011;60147;55.036;73.242;2023-04-03T13:30:27;9.15;;;3.90;;
64060;SDS011;60147;55.036;73.242;2023-04-03T13:32:54;9.20;;;3.92;;
64060;SDS011;60147;55.036;73.242;2023-04-03T13:35:40;12.63;;;4.57;;
64060;SDS011;60147;55.036;73.242;2023-04-03T13:38:21;13.85;;;4.22;;
64060;SDS011;60147;55.036;73.242;2023-04-03T13:40:48;13.73;;;4.13;;
64060;SDS011;60147;55.036;73.242;2023-04-03T13:43:21;13.00;;;4.18;;
64060;SDS011;60147;55.036;73.242;2023-04-03T13:51:27;12.32;;;3.13;;
64060;SDS011;60147;55.036;73.242;2023-04-03T13:53:59;12.27;;;3.88;;
64060;SDS011;60147;55.036;73.242;2023-04-03T13:56:27;11.25;;;3.33;;
64060;SDS011;60147;55.036;73.242;2023-04-03T13:58:57;12.18;;;2.90;;
64060;SDS011;60147;55.036;73.242;2023-04-03T14:01:24;9.70;;;3.15;;
64060;SDS011;60147;55.036;73.242;2023-04-03T14:03:55;8.32;;;4.03;;
64060;SDS011;60147;55.036;73.242;2023-04-03T14:06:21;10.32;;;3.40;;
64060;SDS011;60147;55.036;73.242;2023-04-03T14:08:58;10.20;;;4.25;;
64060;SDS011;60147;55.036;73.242;2023-04-03T14:11:24;13.95;;;4.05;;
64060;SDS011;60147;55.036;73.242;2023-04-03T14:13:52;16.10;;;3.50;;
64060;SDS011;60147;55.036;73.242;2023-04-03T14:16:38;7.35;;;3.70;;
64060;SDS011;60147;55.036;73.242;2023-04-03T14:19:04;15.73;;;4.68;;
64060;SDS011;60147;55.036;73.242;2023-04-03T14:21:30;17.05;;;4.75;;
64060;SDS011;60147;55.036;73.242;2023-04-03T14:23:55;14.35;;;4.43;;
64060;SDS011;60147;55.036;73.242;2023-04-03T14:26:23;11.18;;;4.00;;
64060;SDS011;60147;55.036;73.242;2023-04-03T14:28:50;13.02;;;4.45;;
64060;SDS011;60147;55.036;73.242;2023-04-03T14:31:35;10.75;;;3.85;;
64060;SDS011;60147;55.036;73.242;2023-04-03T14:34:01;9.80;;;3.70;;
64060;SDS011;60147;55.036;73.242;2023-04-03T14:36:28;17.63;;;5.07;;
64060;SDS011;60147;55.036;73.242;2023-04-03T14:38:54;16.15;;;4.38;;
64060;SDS011;60147;55.036;73.242;2023-04-03T14:44:23;15.90;;;5.10;;
64060;SDS011;60147;55.036;73.242;2023-04-03T14:49:34;13.95;;;4.90;;
64060;SDS011;60147;55.036;73.242;2023-04-03T14:52:00;12.90;;;5.25;;
64060;SDS011;60147;55.036;73.242;2023-04-03T14:54:26;19.40;;;6.03;;
64060;SDS011;60147;55.036;73.242;2023-04-03T14:56:54;13.85;;;5.55;;
64060;SDS011;60147;55.036;73.242;2023-04-03T15:05:09;20.73;;;7.03;;
64060;SDS011;60147;55.036;73.242;2023-04-03T15:07:37;19.15;;;6.85;;
64060;SDS011;60147;55.036;73.242;2023-04-03T15:10:20;21.15;;;7.88;;
64060;SDS011;60147;55.036;73.242;2023-04-03T15:12:47;21.90;;;8.88;;
64060;SDS011;60147;55.036;73.242;2023-04-03T15:15:16;18.60;;;8.30;;
64060;SDS011;60147;55.036;73.242;2023-04-03T15:17:43;23.80;;;8.85;;
64060;SDS011;60147;55.036;73.242;2023-04-03T15:20:17;30.13;;;8.73;;
64060;SDS011;60147;55.036;73.242;2023-04-03T15:22:48;19.05;;;8.32;;
64060;SDS011;60147;55.036;73.242;2023-04-03T15:25:24;21.05;;;8.40;;
64060;SDS011;60147;55.036;73.242;2023-04-03T15:28:25;20.45;;;8.32;;
64060;SDS011;60147;55.036;73.242;2023-04-03T15:31:03;25.58;;;9.48;;
64060;SDS011;60147;55.036;73.242;2023-04-03T15:33:31;30.35;;;11.10;;
64060;SDS011;60147;55.036;73.242;2023-04-03T15:35:56;33.00;;;12.05;;
64060;SDS011;60147;55.036;73.242;2023-04-03T15:38:32;29.10;;;13.30;;
64060;SDS011;60147;55.036;73.242;2023-04-03T15:41:17;37.60;;;14.25;;
64060;SDS011;60147;55.036;73.242;2023-04-03T15:43:43;36.65;;;15.48;;
64060;SDS011;60147;55.036;73.242;2023-04-03T15:46:27;36.90;;;15.52;;
64060;SDS011;60147;55.036;73.242;2023-04-03T15:48:53;36.10;;;16.23;;
64060;SDS011;60147;55.036;73.242;2023-04-03T15:51:19;32.08;;;14.15;;
64060;SDS011;60147;55.036;73.242;2023-04-03T15:54:13;31.80;;;13.70;;
64060;SDS011;60147;55.036;73.242;2023-04-03T15:56:40;31.38;;;14.23;;
64060;SDS011;60147;55.036;73.242;2023-04-03T15:59:15;39.42;;;13.20;;
64060;SDS011;60147;55.036;73.242;2023-04-03T16:01:41;31.88;;;13.07;;
64060;SDS011;60147;55.036;73.242;2023-04-03T16:04:10;33.40;;;13.40;;
64060;SDS011;60147;55.036;73.242;2023-04-03T16:06:37;26.80;;;12.50;;
64060;SDS011;60147;55.036;73.242;2023-04-03T16:09:03;31.77;;;15.02;;
64060;SDS011;60147;55.036;73.242;2023-04-03T16:14:01;30.85;;;14.45;;
64060;SDS011;60147;55.036;73.242;2023-04-03T16:16:30;26.17;;;12.80;;
64060;SDS011;60147;55.036;73.242;2023-04-03T16:19:15;24.30;;;12.10;;
64060;SDS011;60147;55.036;73.242;2023-04-03T16:21:52;27.95;;;10.88;;
64060;SDS011;60147;55.036;73.242;2023-04-03T16:27:03;23.55;;;10.63;;
64060;SDS011;60147;55.036;73.242;2023-04-03T16:29:29;25.85;;;10.38;;
64060;SDS011;60147;55.036;73.242;2023-04-03T16:31:56;28.33;;;11.10;;
64060;SDS011;60147;55.036;73.242;2023-04-03T16:34:22;23.77;;;11.55;;
64060;SDS011;60147;55.036;73.242;2023-04-03T16:36:48;25.80;;;14.07;;
64060;SDS011;60147;55.036;73.242;2023-04-03T16:39:32;29.20;;;12.68;;
64060;SDS011;60147;55.036;73.242;2023-04-03T16:42:17;24.63;;;11.18;;
64060;SDS011;60147;55.036;73.242;2023-04-03T16:44:53;28.65;;;12.93;;
64060;SDS011;60147;55.036;73.242;2023-04-03T16:47:18;32.88;;;17.30;;
64060;SDS011;60147;55.036;73.242;2023-04-03T16:49:52;35.00;;;19.65;;
64060;SDS011;60147;55.036;73.242;2023-04-03T16:52:17;37.05;;;19.05;;
64060;SDS011;60147;55.036;73.242;2023-04-03T16:54:53;41.03;;;20.10;;
64060;SDS011;60147;55.036;73.242;2023-04-03T16:57:21;48.17;;;22.83;;
64060;SDS011;60147;55.036;73.242;2023-04-03T16:59:54;48.28;;;22.90;;
64060;SDS011;60147;55.036;73.242;2023-04-03T17:02:39;45.28;;;20.23;;
64060;SDS011;60147;55.036;73.242;2023-04-03T17:05:06;44.33;;;20.15;;
64060;SDS011;60147;55.036;73.242;2023-04-03T17:07:32;44.78;;;20.10;;
64060;SDS011;60147;55.036;73.242;2023-04-03T17:10:00;35.63;;;17.75;;
64060;SDS011;60147;55.036;73.242;2023-04-03T17:12:25;33.17;;;16.85;;
64060;SDS011;60147;55.036;73.242;2023-04-03T17:14:51;32.25;;;15.30;;
64060;SDS011;60147;55.036;73.242;2023-04-03T17:17:18;28.02;;;14.23;;
64060;SDS011;60147;55.036;73.242;2023-04-03T17:22:40;27.20;;;11.95;;
64060;SDS011;60147;55.036;73.242;2023-04-03T17:25:06;23.85;;;10.30;;
64060;SDS011;60147;55.036;73.242;2023-04-03T17:27:32;21.88;;;10.07;;
64060;SDS011;60147;55.036;73.242;2023-04-03T17:32:43;22.23;;;9.18;;
64060;SDS011;60147;55.036;73.242;2023-04-03T17:35:19;20.95;;;9.00;;
64060;SDS011;60147;55.036;73.242;2023-04-03T17:37:44;23.23;;;9.93;;
64060;SDS011;60147;55.036;73.242;2023-04-03T17:40:13;27.13;;;11.07;;
64060;SDS011;60147;55.036;73.242;2023-04-03T17:42:42;27.90;;;10.32;;
64060;SDS011;60147;55.036;73.242;2023-04-03T17:45:08;28.05;;;10.55;;
64060;SDS011;60147;55.036;73.242;2023-04-03T17:47:45;25.27;;;10.00;;
64060;SDS011;60147;55.036;73.242;2023-04-03T17:50:15;25.55;;;9.80;;
64060;SDS011;60147;55.036;73.242;2023-04-03T17:52:41;22.52;;;8.63;;
64060;SDS011;60147;55.036;73.242;2023-04-03T17:55:07;23.38;;;9.48;;
64060;SDS011;60147;55.036;73.242;2023-04-03T17:57:39;19.40;;;8.77;;
64060;SDS011;60147;55.036;73.242;2023-04-03T18:00:23;23.02;;;8.80;;
64060;SDS011;60147;55.036;73.242;2023-04-03T18:02:59;20.38;;;8.75;;
64060;SDS011;60147;55.036;73.242;2023-04-03T18:05:53;22.30;;;9.18;;
64060;SDS011;60147;55.036;73.242;2023-04-03T18:08:19;22.75;;;9.18;;